Time;durP1;ratioP1;P1;durP2;ratioP2;P2;SDS_P1;SDS_P2;PMS_P1;PMS_P2;Temp;Humidity;BMP_temperature;BMP_pressure;BME280_temperature;BME280_humidity;BME280_pressure;Samples;Min_cycle;Max_cycle;Signal;HPM_P1;HPM_P2
2020/12/12 00:01:40;;;;;;;11.55;5.38;;;;;;;3.33;84.43;96683.88;5022458;28;20024;-75
2020/12/12 00:04:05;;;;;;;11.73;5.72;;;;;;;3.38;84.58;96685.91;5032562;28;20040;-75
2020/12/12 00:06:31;;;;;;;10.65;5.25;;;;;;;3.25;84.10;96663.53;5045440;28;20021;-75
2020/12/12 00:08:56;;;;;;;9.13;4.63;;;;;;;3.35;84.48;96678.31;5045817;28;20108;-75
2020/12/12 00:11:22;;;;;;;11.85;5.80;;;;;;;3.28;84.56;96673.81;5048969;28;20028;-75
2020/12/12 00:13:47;;;;;;;9.63;5.43;;;;;;;3.25;84.26;96654.72;5051299;28;20087;-75
2020/12/12 00:16:16;;;;;;;11.65;6.03;;;;;;;3.29;84.63;96663.94;5046008;28;20043;-75
2020/12/12 00:18:42;;;;;;;;;;;;;;;3.33;84.99;96669.66;5021133;28;20021;-73
2020/12/12 00:21:07;;;;;;;14.05;5.93;;;;;;;3.39;84.24;96666.16;5032839;28;19962;-73
2020/12/12 00:23:33;;;;;;;11.40;6.35;;;;;;;3.31;84.53;96653.03;5024783;28;20394;-75
2020/12/12 00:25:58;;;;;;;13.75;5.88;;;;;;;3.29;84.94;96653.25;5050042;28;20378;-75
2020/12/12 00:28:23;;;;;;;12.32;6.70;;;;;;;3.34;84.62;96663.31;5048824;28;20029;-73
2020/12/12 00:30:48;;;;;;;15.70;7.20;;;;;;;3.22;85.75;96668.47;5032232;28;20033;-74
2020/12/12 00:33:14;;;;;;;16.67;7.55;;;;;;;3.27;85.39;96647.28;5021592;28;20130;-73
2020/12/12 00:35:39;;;;;;;14.13;7.13;;;;;;;3.36;84.82;96659.41;5052350;28;20221;-74
2020/12/12 00:38:04;;;;;;;12.00;6.53;;;;;;;3.36;84.98;96655.91;5050788;28;20082;-73
2020/12/12 00:40:30;;;;;;;16.08;6.97;;;;;;;3.34;84.89;96656.09;5029459;28;20041;-74
2020/12/12 00:42:55;;;;;;;16.40;7.03;;;;;;;3.36;84.83;96646.03;5043334;28;20108;-73
2020/12/12 00:45:20;;;;;;;14.95;6.63;;;;;;;3.48;84.82;96667.56;5030723;28;20025;-73
2020/12/12 00:47:45;;;;;;;10.50;5.45;;;;;;;3.52;84.58;96666.13;5044102;28;20091;-74
2020/12/12 00:50:11;;;;;;;10.27;5.05;;;;;;;3.48;83.90;96652.38;5033331;28;20037;-73
2020/12/12 00:52:36;;;;;;;9.60;5.38;;;;;;;3.56;84.35;96659.31;5032288;28;20026;-72
2020/12/12 00:55:01;;;;;;;9.35;5.22;;;;;;;3.50;84.43;96660.97;5031799;28;20113;-74
2020/12/12 00:57:27;;;;;;;9.60;4.85;;;;;;;3.47;84.70;96653.38;5043293;28;20446;-74
2020/12/12 00:59:52;;;;;;;10.05;5.72;;;;;;;3.58;84.95;96651.09;5042246;28;20190;-74
2020/12/12 01:02:17;;;;;;;9.23;5.10;;;;;;;3.59;84.17;96650.88;5050513;28;20028;-73
2020/12/12 01:04:43;;;;;;;10.18;5.47;;;;;;;3.70;83.97;96663.59;5039741;28;20367;-73
2020/12/12 01:07:08;;;;;;;10.85;5.22;;;;;;;3.77;83.13;96665.41;5032351;28;20032;-72
2020/12/12 01:09:33;;;;;;;10.73;5.40;;;;;;;3.61;83.80;96646.13;5051551;28;20029;-74
2020/12/12 01:11:58;;;;;;;10.52;5.50;;;;;;;3.72;84.02;96666.88;5054603;28;20021;-72
2020/12/12 01:14:24;;;;;;;12.70;5.50;;;;;;;3.68;84.25;96662.97;5036633;28;20033;-72
2020/12/12 01:16:49;;;;;;;11.43;6.00;;;;;;;3.68;84.25;96660.28;5035871;28;20053;-72
2020/12/12 01:19:14;;;;;;;9.70;5.40;;;;;;;3.49;85.16;96634.47;5040889;28;20025;-72
2020/12/12 01:21:40;;;;;;;10.32;5.60;;;;;;;3.54;84.92;96647.19;5035185;28;20029;-72
2020/12/12 01:24:05;;;;;;;10.75;5.95;;;;;;;3.55;85.15;96663.03;5041805;28;20043;-72
2020/12/12 01:26:32;;;;;;;13.40;6.35;;;;;;;3.47;86.28;96660.59;5036515;28;20480;-72
2020/12/12 01:28:59;;;;;;;10.40;5.35;;;;;;;3.42;86.05;96655.88;5048923;28;20800;-72
2020/12/12 01:31:24;;;;;;;13.95;4.82;;;;;;;3.57;83.97;96660.97;5036748;28;20493;-72
2020/12/12 01:33:49;;;;;;;10.13;5.32;;;;;;;3.55;84.96;96646.97;5048861;28;20025;-72
2020/12/12 01:36:15;;;;;;;11.95;5.53;;;;;;;3.48;85.40;96664.91;5039519;28;20029;-72
2020/12/12 01:38:40;;;;;;;13.38;6.00;;;;;;;3.54;85.83;96669.41;5033249;28;20013;-72
2020/12/12 01:41:06;;;;;;;13.63;6.32;;;;;;;3.36;86.68;96669.28;5051699;28;20029;-74
2020/12/12 01:43:31;;;;;;;13.25;6.10;;;;;;;3.24;86.85;96669.91;5044672;28;20376;-73
2020/12/12 01:45:57;;;;;;;11.07;5.97;;;;;;;3.22;87.81;96671.13;5040270;28;20053;-72
2020/12/12 01:48:22;;;;;;;13.85;5.32;;;;;;;3.34;85.70;96682.00;5050428;28;20029;-71
2020/12/12 01:50:49;;;;;;;17.13;6.82;;;;;;;3.33;86.51;96683.03;5043775;28;20037;-72
2020/12/12 01:53:17;;;;;;;12.10;6.05;;;;;;;3.33;87.02;96677.69;5049764;28;20031;-72
2020/12/12 01:55:46;;;;;;;13.93;6.00;;;;;;;3.32;86.13;96676.06;5041824;28;20035;-72
2020/12/12 01:58:13;;;;;;;14.23;6.45;;;;;;;3.40;85.67;96681.16;5050750;28;20013;-73
2020/12/12 02:00:38;;;;;;;12.10;5.75;;;;;;;3.21;86.15;96659.63;5074183;28;20386;-74
2020/12/12 02:03:04;;;;;;;13.68;6.72;;;;;;;3.22;86.55;96676.47;5034409;28;20026;-74
2020/12/12 02:05:42;;;;;;;12.00;6.40;;;;;;;3.23;86.38;96676.28;5043046;28;20028;-73
2020/12/12 02:08:12;;;;;;;12.25;5.50;;;;;;;3.26;86.41;96675.84;5036128;28;20029;-73
2020/12/12 02:10:39;;;;;;;12.52;5.90;;;;;;;3.18;86.74;96676.09;5052424;28;20094;-74
2020/12/12 02:13:05;;;;;;;12.68;6.20;;;;;;;3.12;86.45;96666.25;5052321;28;20056;-73
2020/12/12 02:15:31;;;;;;;12.50;5.90;;;;;;;3.21;86.65;96677.53;5051032;28;20017;-73
2020/12/12 02:17:56;;;;;;;12.02;6.60;;;;;;;3.20;86.55;96668.69;5046857;28;20060;-74
2020/12/12 02:20:22;;;;;;;11.98;5.82;;;;;;;3.05;87.18;96663.56;5050813;28;20037;-73
2020/12/12 02:22:47;;;;;;;12.00;5.80;;;;;;;3.12;87.62;96676.09;5034683;28;20112;-73
2020/12/12 02:25:13;;;;;;;11.70;6.03;;;;;;;3.14;85.83;96661.50;5035696;28;20441;-74
2020/12/12 02:27:38;;;;;;;12.43;6.38;;;;;;;3.25;86.60;96673.41;5053368;28;20021;-73
2020/12/12 02:30:06;;;;;;;11.95;6.22;;;;;;;3.23;87.18;96680.81;5035202;28;20055;-73
2020/12/12 02:32:31;;;;;;;12.73;6.40;;;;;;;3.22;87.12;96671.13;5050769;28;20032;-74
2020/12/12 02:34:57;;;;;;;13.35;6.50;;;;;;;3.31;87.12;96680.59;5052064;28;20414;-74
2020/12/12 02:37:22;;;;;;;13.77;5.97;;;;;;;3.17;87.52;96682.47;5037293;28;20120;-74
2020/12/12 02:39:48;;;;;;;13.90;7.10;;;;;;;3.19;87.04;96672.38;5044443;28;20029;-74
2020/12/12 02:42:13;;;;;;;13.02;7.10;;;;;;;3.21;87.56;96677.53;5019837;28;20031;-73
2020/12/12 02:44:38;;;;;;;12.68;6.35;;;;;;;3.31;86.75;96674.41;5053571;28;20040;-74
2020/12/12 02:47:03;;;;;;;15.00;6.55;;;;;;;3.27;86.96;96668.66;5052505;28;20032;-73
2020/12/12 02:49:29;;;;;;;13.27;6.65;;;;;;;3.39;86.19;96679.53;5027765;28;20040;-74
2020/12/12 02:51:54;;;;;;;12.50;6.43;;;;;;;3.46;85.29;96661.63;5027742;28;20115;-73
2020/12/12 02:54:19;;;;;;;13.02;6.65;;;;;;;3.47;85.25;96671.28;5048176;28;20056;-73
2020/12/12 02:56:45;;;;;;;11.93;6.10;;;;;;;3.45;85.18;96665.31;5048945;28;20044;-74
2020/12/12 02:59:10;;;;;;;14.43;7.03;;;;;;;3.40;86.20;96665.94;5015784;28;20025;-73
2020/12/12 03:01:38;;;;;;;11.70;6.15;;;;;;;3.36;85.30;96648.69;5050330;28;20024;-73
2020/12/12 03:04:04;;;;;;;14.45;6.78;;;;;;;3.43;85.98;96667.38;5049288;28;20042;-74
2020/12/12 03:06:29;;;;;;;12.80;6.65;;;;;;;3.43;85.67;96675.41;5034534;28;20578;-74
2020/12/12 03:08:54;;;;;;;14.02;6.43;;;;;;;3.53;84.77;96664.25;5035070;28;20116;-74
2020/12/12 03:11:20;;;;;;;13.57;6.85;;;;;;;3.58;85.31;96675.97;5040435;28;20028;-74
2020/12/12 03:13:45;;;;;;;13.00;6.45;;;;;;;3.53;85.23;96665.09;5053012;28;20394;-74
2020/12/12 03:16:10;;;;;;;15.63;6.97;;;;;;;3.62;85.26;96679.06;5051018;28;20115;-74
2020/12/12 03:18:35;;;;;;;12.77;5.97;;;;;;;3.56;84.19;96653.16;5052425;28;20104;-73
2020/12/12 03:21:01;;;;;;;12.38;6.47;;;;;;;3.63;84.27;96661.97;5052052;28;20024;-73
2020/12/12 03:23:26;;;;;;;14.15;6.38;;;;;;;3.67;84.35;96669.34;5052779;28;20050;-73
2020/12/12 03:25:51;;;;;;;12.85;7.22;;;;;;;3.57;84.45;96668.97;5052617;28;20024;-74
2020/12/12 03:28:17;;;;;;;14.77;6.95;;;;;;;3.56;84.79;96658.50;5049976;28;20045;-74
2020/12/12 03:30:42;;;;;;;14.30;6.95;;;;;;;3.60;84.54;96673.91;5052360;28;20044;-74
2020/12/12 03:33:07;;;;;;;15.60;6.80;;;;;;;3.55;84.81;96667.56;5052261;28;20029;-74
2020/12/12 03:35:32;;;;;;;13.65;7.20;;;;;;;3.57;84.64;96666.31;5034583;28;20492;-73
2020/12/12 03:37:59;;;;;;;14.05;6.78;;;;;;;3.57;84.97;96670.84;5033544;28;20033;-74
2020/12/12 03:40:25;;;;;;;13.10;6.72;;;;;;;3.40;85.60;96668.63;5049623;28;20071;-73
2020/12/12 03:42:51;;;;;;;18.35;7.30;;;;;;;3.36;86.52;96678.09;5051795;28;20069;-74
2020/12/12 03:45:17;;;;;;;14.40;7.78;;;;;;;3.40;86.18;96675.81;5043485;28;20026;-73
2020/12/12 03:47:42;;;;;;;14.43;7.18;;;;;;;3.37;84.96;96657.53;5024927;28;22579;-74
2020/12/12 03:50:07;;;;;;;14.40;7.15;;;;;;;3.48;85.41;96684.44;5032537;28;20021;-74
2020/12/12 03:52:33;;;;;;;13.95;6.60;;;;;;;3.49;85.04;96674.56;5033121;28;20082;-73
2020/12/12 03:54:58;;;;;;;16.02;7.10;;;;;;;3.47;85.40;96673.97;5045792;28;20056;-73
2020/12/12 03:57:23;;;;;;;15.20;7.45;;;;;;;3.45;85.40;96686.69;5049675;28;20482;-74
2020/12/12 03:59:48;;;;;;;14.63;7.07;;;;;;;3.38;86.13;96675.19;5038688;28;20029;-73
2020/12/12 04:02:14;;;;;;;14.02;7.30;;;;;;;3.39;85.78;96677.69;5042093;28;20386;-73
2020/12/12 04:04:39;;;;;;;15.15;7.13;;;;;;;3.48;85.82;96688.94;5035476;28;20032;-73
2020/12/12 04:07:04;;;;;;;14.82;7.03;;;;;;;3.39;85.65;96693.72;5051896;28;20067;-73
2020/12/12 04:09:30;;;;;;;14.80;7.40;;;;;;;3.32;86.40;96686.75;5050345;28;20028;-74
2020/12/12 04:11:55;;;;;;;22.95;7.82;;;;;;;3.38;86.69;96701.94;5045230;28;20024;-72
2020/12/12 04:14:21;;;;;;;14.73;7.55;;;;;;;3.33;86.62;96699.91;5051380;28;20387;-72
2020/12/12 04:16:48;;;;;;;15.43;7.70;;;;;;;3.34;86.72;96698.06;5051899;28;20025;-72
2020/12/12 04:19:13;;;;;;;17.13;7.82;;;;;;;3.35;86.16;96697.00;5048397;28;20029;-72
2020/12/12 04:21:38;;;;;;;15.18;7.15;;;;;;;3.29;86.67;96690.66;5051789;28;20021;-72
2020/12/12 04:24:04;;;;;;;15.77;7.63;;;;;;;3.40;87.02;96708.72;5049251;28;20394;-72
2020/12/12 04:26:29;;;;;;;16.48;7.38;;;;;;;3.33;87.01;96693.72;5047942;28;20075;-72
2020/12/12 04:28:54;;;;;;;15.07;6.70;;;;;;;3.31;86.55;96685.13;5031942;28;20021;-72
2020/12/12 04:31:19;;;;;;;16.40;7.90;;;;;;;3.36;87.09;96709.34;5034230;28;20087;-72
2020/12/12 04:33:45;;;;;;;15.20;7.75;;;;;;;3.33;87.13;96707.09;5042255;28;20032;-72
2020/12/12 04:36:10;;;;;;;17.20;7.90;;;;;;;3.28;87.23;96692.50;5056115;28;20079;-72
2020/12/12 04:38:36;;;;;;;16.77;7.32;;;;;;;3.41;87.08;96701.53;5047343;28;20630;-72
2020/12/12 04:41:02;;;;;;;14.88;7.75;;;;;;;3.39;87.08;96707.09;5035872;28;20022;-73
2020/12/12 04:43:29;;;;;;;16.45;7.65;;;;;;;3.34;86.93;96695.38;5051161;28;20486;-73
2020/12/12 04:45:55;;;;;;;19.35;7.32;;;;;;;3.35;87.19;96702.34;5055380;28;20086;-73
2020/12/12 04:48:21;;;;;;;15.43;7.82;;;;;;;3.26;87.63;96697.22;5055466;28;20111;-73
2020/12/12 04:50:47;;;;;;;13.73;7.43;;;;;;;3.24;87.43;96701.16;5055333;28;20112;-73
2020/12/12 04:53:15;;;;;;;14.68;7.22;;;;;;;3.31;87.03;96709.97;5055313;28;20108;-73
2020/12/12 04:55:50;;;;;;;14.05;7.63;;;;;;;3.33;87.25;96704.41;5055772;28;20024;-73
2020/12/12 04:58:17;;;;;;;15.05;7.25;;;;;;;3.43;86.38;96696.78;5032702;28;20414;-73
2020/12/12 05:00:47;;;;;;;13.43;7.40;;;;;;;3.49;85.75;96693.28;5017747;28;20124;-73
2020/12/12 05:03:15;;;;;;;13.45;6.80;;;;;;;3.57;84.78;96695.72;5048992;28;20112;-73
2020/12/12 05:05:41;;;;;;;13.55;6.72;;;;;;;3.65;84.68;96700.00;5035239;28;20021;-73
2020/12/12 05:08:08;;;;;;;12.93;6.47;;;;;;;3.59;84.25;96688.31;5034043;28;20556;-73
2020/12/12 05:10:45;;;;;;;15.48;7.30;;;;;;;3.64;83.70;96685.00;5035686;28;20037;-76
2020/12/12 05:13:17;;;;;;;15.20;6.45;;;;;;;3.80;82.99;96702.41;5060932;28;20012;-76
2020/12/12 05:15:43;;;;;;;11.52;6.38;;;;;;;3.84;83.82;96699.09;5050547;28;20090;-79
2020/12/12 05:18:10;;;;;;;12.07;6.05;;;;;;;3.82;83.15;96708.38;5061770;28;20111;-79
2020/12/12 05:20:36;;;;;;;11.93;6.07;;;;;;;3.84;82.98;96703.63;5044004;28;20036;-78
2020/12/12 05:23:28;;;;;;;14.70;6.40;;;;;;;3.85;82.69;96713.28;5055331;28;20021;-76
2020/12/12 05:25:55;;;;;;;12.35;6.00;;;;;;;3.76;82.43;96695.84;5054557;28;20372;-78
2020/12/12 05:28:22;;;;;;;13.23;6.43;;;;;;;3.85;82.49;96686.53;5042874;28;20128;-78
2020/12/12 05:30:50;;;;;;;11.07;6.07;;;;;;;3.92;82.15;96706.06;5045087;28;20021;-74
2020/12/12 05:33:24;;;;;;;14.98;7.47;;;;;;;3.82;82.13;96679.75;5036364;28;20598;-76
2020/12/12 05:35:50;;;;;;;13.00;6.85;;;;;;;3.93;82.18;96700.53;5045079;28;20025;-78
2020/12/12 05:38:16;;;;;;;12.80;6.25;;;;;;;3.93;82.12;96705.06;5053415;28;20531;-76
2020/12/12 05:40:48;;;;;;;11.63;6.05;;;;;;;3.95;82.09;96711.00;5040754;28;20021;-77
2020/12/12 05:43:13;;;;;;;10.90;5.90;;;;;;;3.82;82.01;96693.13;5054890;28;20478;-75
2020/12/12 05:45:40;;;;;;;12.18;6.13;;;;;;;3.93;81.92;96689.00;5048834;28;20036;-71
2020/12/12 05:48:07;;;;;;;12.30;6.88;;;;;;;3.91;81.89;96688.38;5053654;28;20032;-74
2020/12/12 05:50:33;;;;;;;13.07;6.38;;;;;;;3.98;81.87;96704.41;5029661;28;20033;-71
2020/12/12 05:52:58;;;;;;;11.55;6.55;;;;;;;3.86;82.04;96693.56;5016822;28;20025;-73
2020/12/12 05:55:28;;;;;;;10.73;6.15;;;;;;;3.88;82.28;96692.31;5042807;28;20033;-73
2020/12/12 05:57:54;;;;;;;16.77;6.95;;;;;;;3.81;82.82;96693.38;5053883;28;20111;-73
2020/12/12 06:00:21;;;;;;;12.32;6.25;;;;;;;3.86;82.93;96720.31;5045012;28;20107;-73
2020/12/12 06:02:55;;;;;;;14.45;6.72;;;;;;;3.96;82.29;96709.97;5037833;28;20025;-72
2020/12/12 06:05:29;;;;;;;11.90;6.55;;;;;;;3.97;82.59;96710.78;5053874;28;20104;-76
2020/12/12 06:07:57;;;;;;;13.43;7.30;;;;;;;3.97;82.67;96714.28;5043753;28;20021;-71
2020/12/12 06:10:28;;;;;;;11.82;6.32;;;;;;;3.96;83.17;96715.31;5050360;28;20367;-75
2020/12/12 06:13:04;;;;;;;13.05;6.35;;;;;;;3.93;82.99;96707.72;5056041;28;20055;-75
2020/12/12 06:15:36;;;;;;;12.68;6.75;;;;;;;4.00;82.72;96716.53;5063523;28;20051;-73
2020/12/12 06:18:21;;;;;;;13.05;5.82;;;;;;;4.01;82.06;96723.53;5053182;28;20033;-78
2020/12/12 06:20:50;;;;;;;9.93;5.53;;;;;;;4.07;81.62;96722.69;5035953;28;20428;-73
2020/12/12 06:23:17;;;;;;;12.02;6.32;;;;;;;4.01;81.64;96715.50;5054164;28;20032;-74
2020/12/12 06:25:42;;;;;;;12.98;7.05;;;;;;;3.97;81.95;96711.59;5032158;28;20495;-74
2020/12/12 06:28:10;;;;;;;12.68;6.57;;;;;;;3.96;82.01;96734.06;5049396;28;20024;-74
2020/12/12 06:30:36;;;;;;;12.05;6.28;;;;;;;3.97;82.39;96724.97;5051683;28;20025;-74
2020/12/12 06:33:04;;;;;;;11.93;6.25;;;;;;;3.99;81.92;96738.16;5053842;28;20037;-74
2020/12/12 06:35:34;;;;;;;13.35;6.82;;;;;;;3.91;82.57;96734.69;5049828;28;20356;-74
2020/12/12 06:38:18;;;;;;;12.10;6.38;;;;;;;3.94;82.72;96739.59;5029785;28;20025;-74
2020/12/12 06:40:43;;;;;;;12.80;6.45;;;;;;;3.91;82.59;96731.19;5045076;28;20045;-71
2020/12/12 06:43:33;;;;;;;13.13;6.50;;;;;;;3.96;82.39;96736.72;5053152;28;20381;-74
2020/12/12 06:45:59;;;;;;;;;;;;;;;4.04;82.11;96747.19;5016629;28;20022;-69
2020/12/12 06:48:27;;;;;;;13.40;5.03;;;;;;;3.98;82.31;96731.97;5052595;28;19917;-73
2020/12/12 06:50:53;;;;;;;9.80;6.05;;;;;;;4.10;82.29;96754.34;5047081;28;20021;-73
2020/12/12 06:53:26;;;;;;;12.82;6.30;;;;;;;4.07;82.21;96745.94;5053007;28;20025;-73
2020/12/12 06:56:14;;;;;;;12.63;6.15;;;;;;;4.11;81.70;96750.66;5032012;28;20502;-73
2020/12/12 06:58:41;;;;;;;10.93;5.90;;;;;;;4.08;81.86;96751.06;5034030;28;20059;-73
2020/12/12 07:01:27;;;;;;;9.55;5.30;;;;;;;4.11;81.51;96753.34;5039964;28;20128;-73
2020/12/12 07:04:00;;;;;;;10.73;5.97;;;;;;;4.11;81.54;96753.34;5046587;28;20022;-73
2020/12/12 07:06:28;;;;;;;11.98;6.13;;;;;;;4.14;81.62;96760.13;5022297;28;20025;-73
2020/12/12 07:08:58;;;;;;;10.80;5.78;;;;;;;4.12;82.00;96756.84;5044189;28;20079;-73
2020/12/12 07:11:25;;;;;;;13.95;5.82;;;;;;;4.15;81.97;96759.88;5046751;28;20056;-73
2020/12/12 07:13:51;;;;;;;13.00;5.90;;;;;;;4.08;81.47;96759.09;5048478;28;20036;-73
2020/12/12 07:16:17;;;;;;;11.73;5.93;;;;;;;4.15;82.14;96759.06;5044085;28;20020;-73
2020/12/12 07:18:42;;;;;;;13.77;6.95;;;;;;;4.20;81.87;96775.31;5027028;28;20075;-74
2020/12/12 07:21:10;;;;;;;12.55;6.45;;;;;;;4.15;81.76;96775.94;5047875;28;20104;-73
2020/12/12 07:23:38;;;;;;;12.15;5.78;;;;;;;4.17;81.62;96775.75;5041878;28;20040;-73
2020/12/12 07:26:04;;;;;;;11.48;6.00;;;;;;;4.15;82.14;96772.47;5044244;28;20104;-73
2020/12/12 07:28:29;;;;;;;10.85;5.97;;;;;;;4.23;81.53;96784.78;5041053;28;20521;-73
2020/12/12 07:30:54;;;;;;;10.60;5.65;;;;;;;4.26;81.61;96782.47;5044987;28;20525;-73
2020/12/12 07:33:19;;;;;;;10.57;5.43;;;;;;;4.29;81.99;96791.94;5046200;28;20025;-73
2020/12/12 07:35:45;;;;;;;13.57;5.95;;;;;;;4.30;82.01;96786.38;5042424;28;20524;-73
2020/12/12 07:38:10;;;;;;;9.27;5.45;;;;;;;4.28;81.67;96787.63;5024880;28;20052;-73
2020/12/12 07:40:37;;;;;;;10.65;5.45;;;;;;;4.37;81.73;96799.72;5048595;28;20090;-76
2020/12/12 07:43:08;;;;;;;9.40;5.32;;;;;;;4.22;81.36;96764.38;5051868;28;20028;-75
2020/12/12 07:48:12;;;;;;;9.30;5.22;;;;;;;4.42;81.49;96793.75;5047033;28;20382;-75
2020/12/12 07:50:38;;;;;;;9.75;4.65;;;;;;;4.36;81.94;96792.75;5051473;28;20028;-75
2020/12/12 07:53:11;;;;;;;8.32;4.72;;;;;;;4.41;81.82;96798.28;5033553;28;20025;-74
2020/12/12 07:55:43;;;;;;;10.43;5.18;;;;;;;4.43;81.87;96804.25;5049138;28;20111;-73
2020/12/12 07:58:16;;;;;;;8.38;4.78;;;;;;;4.52;81.95;96810.97;5045490;28;20025;-74
2020/12/12 08:00:42;;;;;;;9.27;4.80;;;;;;;4.64;82.18;96823.69;5033854;28;20222;-74
2020/12/12 08:03:07;;;;;;;8.63;5.68;;;;;;;4.63;82.09;96822.88;5050569;28;20032;-73
2020/12/12 08:05:32;;;;;;;7.57;4.40;;;;;;;4.74;81.78;96832.09;5049884;28;20028;-74
2020/12/12 08:07:58;;;;;;;9.10;5.45;;;;;;;4.78;82.01;96834.13;5049563;28;20067;-73
2020/12/12 08:10:23;;;;;;;10.32;5.10;;;;;;;4.73;81.75;96822.41;5024908;28;20032;-73
2020/12/12 08:12:49;;;;;;;7.35;4.50;;;;;;;4.82;81.89;96834.50;5048293;28;20036;-73
2020/12/12 08:15:24;;;;;;;8.27;4.72;;;;;;;4.90;81.73;96844.16;5050100;28;20032;-73
2020/12/12 08:17:49;;;;;;;7.45;4.40;;;;;;;4.97;81.35;96847.63;5049972;28;20021;-73
2020/12/12 08:20:17;;;;;;;8.25;4.22;;;;;;;4.99;81.40;96849.03;5050492;28;20453;-73
2020/12/12 08:22:44;;;;;;;7.97;4.55;;;;;;;5.01;81.87;96856.88;5050611;28;20106;-74
2020/12/12 08:25:10;;;;;;;6.43;4.00;;;;;;;5.07;81.94;96855.19;5052064;28;20087;-72
2020/12/12 08:27:36;;;;;;;9.00;4.88;;;;;;;4.90;81.67;96855.72;5044895;28;20033;-72
2020/12/12 08:30:05;;;;;;;8.40;4.97;;;;;;;4.95;81.98;96858.56;5037078;28;20368;-72
2020/12/12 08:32:42;;;;;;;8.95;5.03;;;;;;;5.07;81.69;96865.91;5036125;28;20467;-71
2020/12/12 08:35:17;;;;;;;10.43;5.47;;;;;;;5.10;82.18;96871.66;5044470;28;20502;-73
2020/12/12 08:38:11;;;;;;;11.38;5.25;;;;;;;5.18;81.62;96879.44;5025962;28;20061;-73
2020/12/12 08:40:48;;;;;;;10.20;5.68;;;;;;;5.07;82.22;96882.81;5035142;28;20120;-72
2020/12/12 08:43:15;;;;;;;11.05;5.53;;;;;;;5.20;82.03;96884.59;5041114;28;20032;-72
2020/12/12 08:46:01;;;;;;;8.43;4.50;;;;;;;5.18;82.03;96886.66;5049022;28;20024;-71
2020/12/12 08:48:32;;;;;;;8.35;4.60;;;;;;;5.17;82.01;96893.06;5039799;28;20035;-72
2020/12/12 08:50:58;;;;;;;6.75;4.25;;;;;;;5.26;82.36;96887.22;5035866;28;20487;-72
2020/12/12 08:53:28;;;;;;;8.32;4.82;;;;;;;5.24;82.32;96893.84;5059348;28;20098;-75
2020/12/12 08:56:24;;;;;;;11.85;5.10;;;;;;;5.22;82.52;96896.75;5054224;28;20548;-73
2020/12/12 08:59:05;;;;;;;7.95;4.72;;;;;;;5.29;82.91;96907.41;5047638;28;20498;-72
2020/12/12 09:01:35;;;;;;;9.20;4.55;;;;;;;5.31;83.00;96907.19;5050494;28;20035;-72
2020/12/12 09:04:03;;;;;;;7.93;4.38;;;;;;;5.30;82.47;96900.22;5051148;28;20021;-72
2020/12/12 09:06:30;;;;;;;7.45;4.15;;;;;;;5.47;82.24;96912.03;5051546;28;20024;-73
2020/12/12 09:09:04;;;;;;;9.48;4.15;;;;;;;5.36;81.65;96897.47;5032382;28;20036;-75
2020/12/12 09:11:31;;;;;;;8.70;4.57;;;;;;;5.47;82.04;96926.25;5051526;28;20075;-74
2020/12/12 09:13:56;;;;;;;11.35;5.32;;;;;;;5.46;82.37;96915.75;5051302;28;20086;-75
2020/12/12 09:16:22;;;;;;;6.93;4.07;;;;;;;5.56;82.01;96912.59;5034043;28;20021;-73
2020/12/12 09:18:47;;;;;;;8.13;4.32;;;;;;;5.52;82.47;96916.75;5053229;28;20063;-74
2020/12/12 09:21:13;;;;;;;9.00;5.15;;;;;;;5.46;83.37;96935.34;5031230;28;20415;-74
2020/12/12 09:23:40;;;;;;;9.00;5.10;;;;;;;5.48;83.80;96927.09;5051069;28;20022;-74
2020/12/12 09:26:07;;;;;;;11.82;4.95;;;;;;;5.36;83.76;96931.50;5053162;28;20037;-73
2020/12/12 09:28:33;;;;;;;9.20;4.40;;;;;;;5.39;83.79;96939.13;5046672;28;20104;-73
2020/12/12 09:30:59;;;;;;;9.57;5.18;;;;;;;5.35;83.61;96938.72;5037404;28;20017;-72
2020/12/12 09:33:24;;;;;;;11.77;5.78;;;;;;;5.40;84.09;96940.78;5054682;28;20094;-74
2020/12/12 09:35:50;;;;;;;9.43;5.30;;;;;;;5.47;83.94;96942.34;5054462;28;20517;-74
2020/12/12 09:38:15;;;;;;;10.82;5.15;;;;;;;5.52;84.57;96944.38;5052990;28;20033;-74
2020/12/12 09:40:43;;;;;;;8.18;5.18;;;;;;;5.48;84.54;96949.38;5050414;28;20028;-72
2020/12/12 09:43:08;;;;;;;9.85;4.57;;;;;;;5.31;84.61;96937.50;5050518;28;20483;-74
2020/12/12 09:45:33;;;;;;;12.18;4.80;;;;;;;5.37;84.87;96958.13;5054425;28;20028;-71
2020/12/12 09:47:59;;;;;;;8.55;4.53;;;;;;;5.23;85.65;96957.34;5051836;28;20090;-71
2020/12/12 09:50:33;;;;;;;9.38;4.50;;;;;;;5.16;86.13;96953.91;5054442;28;20032;-71
2020/12/12 09:53:03;;;;;;;10.35;5.55;;;;;;;5.04;86.93;96948.38;5051364;28;20024;-72
2020/12/12 09:55:30;;;;;;;9.23;5.20;;;;;;;5.17;86.50;96957.41;5054223;28;20469;-71
2020/12/12 09:57:56;;;;;;;7.43;4.55;;;;;;;5.32;85.90;96974.03;5049827;28;20025;-73
2020/12/12 10:00:22;;;;;;;7.78;4.40;;;;;;;5.19;86.19;96972.25;5038457;28;20021;-72
2020/12/12 10:02:47;;;;;;;9.25;5.28;;;;;;;5.44;85.95;96974.97;5043925;28;20039;-72
2020/12/12 10:05:12;;;;;;;14.50;6.90;;;;;;;5.53;85.95;96966.66;5044609;28;20032;-72
2020/12/12 10:07:37;;;;;;;11.48;6.20;;;;;;;5.39;86.21;96974.78;5053999;28;20025;-70
2020/12/12 10:10:03;;;;;;;9.15;5.03;;;;;;;5.56;85.92;96969.75;5053532;28;20372;-73
2020/12/12 10:12:28;;;;;;;10.02;5.78;;;;;;;5.64;85.88;96974.03;5054083;28;20025;-73
2020/12/12 10:14:53;;;;;;;7.18;4.97;;;;;;;5.70;85.65;96984.72;5053221;28;20029;-73
2020/12/12 10:17:19;;;;;;;18.27;6.78;;;;;;;5.78;85.25;96983.63;5052310;28;20468;-72
2020/12/12 10:19:44;;;;;;;8.27;5.13;;;;;;;5.70;85.31;96973.97;5040087;28;20751;-73
2020/12/12 10:22:09;;;;;;;8.02;5.03;;;;;;;5.76;84.98;96979.50;5050623;28;20083;-72
2020/12/12 10:24:35;;;;;;;9.35;6.03;;;;;;;5.84;85.24;96988.13;5049573;28;20029;-73
2020/12/12 10:27:00;;;;;;;10.15;5.95;;;;;;;5.83;84.89;96982.97;5052023;28;20025;-73
2020/12/12 10:29:25;;;;;;;8.00;4.75;;;;;;;5.89;84.55;96988.31;5046060;28;20101;-73
2020/12/12 10:31:50;;;;;;;11.95;6.10;;;;;;;5.86;85.00;96999.44;5022037;28;20071;-73
2020/12/12 10:34:16;;;;;;;7.50;5.05;;;;;;;5.89;85.62;96993.69;5051401;28;20108;-72
2020/12/12 10:36:41;;;;;;;9.02;5.80;;;;;;;5.91;84.66;96994.25;5061014;28;20032;-73
2020/12/12 10:39:09;;;;;;;9.10;4.70;;;;;;;5.77;85.24;96990.03;5032760;28;20120;-73
2020/12/12 10:41:34;;;;;;;12.65;5.90;;;;;;;5.63;85.83;96992.00;5036707;28;20065;-73
2020/12/12 10:43:59;;;;;;;8.55;4.97;;;;;;;5.56;86.51;96991.22;5050099;28;20533;-72
2020/12/12 10:46:24;;;;;;;7.10;4.40;;;;;;;5.59;86.14;97011.41;5052487;28;20510;-73
2020/12/12 10:48:50;;;;;;;8.55;4.88;;;;;;;5.55;86.55;97002.16;5048723;28;20064;-73
2020/12/12 10:51:16;;;;;;;8.18;4.93;;;;;;;5.75;86.17;97002.84;5047502;28;20016;-73
2020/12/12 10:53:41;;;;;;;6.13;4.53;;;;;;;5.84;85.85;97006.06;5045575;28;20025;-72
2020/12/12 10:56:07;;;;;;;10.52;5.15;;;;;;;5.88;86.00;97008.13;5039652;28;20549;-72
2020/12/12 10:58:32;;;;;;;8.90;4.80;;;;;;;5.76;86.15;97001.78;5032485;28;20021;-71
2020/12/12 11:00:57;;;;;;;5.88;3.97;;;;;;;5.74;86.46;97001.22;5043832;28;20024;-73
2020/12/12 11:03:23;;;;;;;11.18;5.30;;;;;;;5.76;86.05;97007.16;5053307;28;20082;-71
2020/12/12 11:05:48;;;;;;;5.75;3.42;;;;;;;5.84;86.15;97012.28;5049948;28;20047;-71
2020/12/12 11:08:14;;;;;;;7.95;5.30;;;;;;;5.83;86.48;97010.63;5044603;28;20032;-71
2020/12/12 11:10:39;;;;;;;13.50;8.45;;;;;;;5.79;86.52;97006.75;5035421;28;20043;-71
2020/12/12 11:13:04;;;;;;;11.98;5.68;;;;;;;5.87;86.80;97024.47;5050124;28;20070;-71
2020/12/12 11:15:29;;;;;;;11.85;6.82;;;;;;;5.83;86.33;97029.41;5053254;28;20032;-71
2020/12/12 11:17:55;;;;;;;7.75;4.32;;;;;;;5.73;86.92;97015.66;5040959;28;20032;-71
2020/12/12 11:20:20;;;;;;;13.60;4.57;;;;;;;5.69;87.40;97014.44;5033218;28;20028;-71
2020/12/12 11:22:45;;;;;;;7.28;3.90;;;;;;;5.58;87.82;97010.59;5051148;28;20475;-71
2020/12/12 11:25:11;;;;;;;12.52;5.45;;;;;;;5.64;87.68;97019.66;5037614;28;20040;-71
2020/12/12 11:27:37;;;;;;;10.60;4.75;;;;;;;5.64;88.15;97027.69;5031309;28;20031;-71
2020/12/12 11:30:07;;;;;;;7.78;4.82;;;;;;;5.65;88.38;97030.13;5050612;28;20115;-71
2020/12/12 11:32:33;;;;;;;13.93;7.28;;;;;;;5.66;87.57;97022.94;5050075;28;20300;-71
2020/12/12 11:35:07;;;;;;;9.77;5.15;;;;;;;5.76;87.62;97025.13;5037797;28;20744;-71
2020/12/12 11:45:59;;;;;;;19.90;11.07;;;;;;;5.66;87.66;97025.63;5022983;28;20033;-71
2020/12/12 11:48:24;;;;;;;11.27;7.20;;;;;;;5.75;87.38;97032.38;5049938;28;20025;-70